CheckWX is a tool to help pilots better visualize weather data.  It is not intended as a substitute for an official pre-flight weather briefing.

14:23:21 UTC

KPVU METAR
Provo Municipal Airport
Provo, Utah, USA
Current

1 hour ago

KPVU 161256Z 11003KT 10SM CLR 17/07 A3001 RMK AO2 SLP099 T01670072
Observed
Jul-16 @ 12:56 UTC
Wind
  • 110° at 3 KTS
Visibility
10 SM
Flight Rules
VFR
Cloud Levels
  • Clear skies
Temperature
17°C / 63°F
Dewpoint
C / 45°F
Humidity
52%
Altimeter
30.01" Hg
Pressure
1016.22 hPa
Previous

2 hours ago

KPVU 161156Z AUTO 00000KT 10SM CLR 16/08 A2999 RMK AO2 SLP093 T01560078 10222 20150 53005
Observed
Jul-16 @ 11:56 UTC
Visibility
10 SM
Flight Rules
VFR
Cloud Levels
  • Clear skies
Temperature
16°C / 61°F
Dewpoint
C / 46°F
Humidity
59%
Altimeter
29.99" Hg
Pressure
1015.62 hPa
Previous

3 hours ago

KPVU 161056Z AUTO 00000KT 10SM CLR 16/08 A2998 RMK AO2 SLP089 T01610078
Observed
Jul-16 @ 10:56 UTC
Visibility
10 SM
Flight Rules
VFR
Cloud Levels
  • Clear skies
Temperature
16°C / 61°F
Dewpoint
C / 46°F
Humidity
59%
Altimeter
29.98" Hg
Pressure
1015.22 hPa